createdAt,value
2022-10-05T00:00:01.568Z,79.45
2022-10-05T00:02:33.409Z,79.29
2022-10-05T00:05:06.996Z,79.45
2022-10-05T00:07:37.338Z,79.31
2022-10-05T00:10:10.823Z,79.14
2022-10-05T00:12:41.502Z,79.23
2022-10-05T00:15:13.799Z,79.51
2022-10-05T00:17:44.168Z,79.29
2022-10-05T00:20:20.528Z,79.38
2022-10-05T00:23:00.133Z,79.25
2022-10-05T00:25:30.531Z,79.06
2022-10-05T00:28:02.249Z,79.53
2022-10-05T00:30:34.675Z,79.67
2022-10-05T00:33:04.983Z,79.84
2022-10-05T00:35:37.001Z,79.90
2022-10-05T00:38:07.440Z,79.90
2022-10-05T00:41:02.168Z,79.93
2022-10-05T00:43:47.371Z,79.97
2022-10-05T00:46:29.240Z,80.12
2022-10-05T00:49:14.658Z,80.35
2022-10-05T00:51:48.059Z,80.27
2022-10-05T00:54:21.536Z,80.25
2022-10-05T00:57:11.639Z,80.24
2022-10-05T00:59:50.902Z,80.14
2022-10-05T01:02:37.102Z,80.26
2022-10-05T01:05:27.333Z,80.14
2022-10-05T01:08:20.311Z,80.15
2022-10-05T01:11:11.921Z,80.20
2022-10-05T01:13:51.422Z,79.60
2022-10-05T01:16:49.849Z,79.63
2022-10-05T01:19:40.255Z,79.69
2022-10-05T01:22:16.676Z,79.75
2022-10-05T01:24:53.041Z,79.69
2022-10-05T01:27:39.068Z,79.68
2022-10-05T01:30:15.546Z,79.38
2022-10-05T01:33:04.012Z,79.57
2022-10-05T01:35:39.888Z,79.64
2022-10-05T01:38:25.278Z,79.85
2022-10-05T01:41:21.414Z,79.95
2022-10-05T01:43:57.676Z,79.98
2022-10-05T01:46:46.618Z,80.03
2022-10-05T01:49:39.827Z,79.98
2022-10-05T01:52:22.035Z,80.02
2022-10-05T01:55:18.218Z,80.42
2022-10-05T01:58:00.466Z,80.36
2022-10-05T02:00:33.893Z,80.54
2022-10-05T02:03:10.393Z,80.41
2022-10-05T02:05:43.900Z,80.55
2022-10-05T02:08:26.475Z,80.60
2022-10-05T02:11:02.716Z,80.79
2022-10-05T02:13:39.151Z,80.69
2022-10-05T02:16:29.241Z,80.19
2022-10-05T02:19:21.114Z,80.48
2022-10-05T02:22:12.792Z,80.91
2022-10-05T02:24:46.238Z,80.95
2022-10-05T02:27:19.779Z,80.68
2022-10-05T02:29:51.639Z,81.02
2022-10-05T02:32:25.107Z,80.93
2022-10-05T02:34:58.579Z,81.07
2022-10-05T02:37:43.471Z,81.14
2022-10-05T02:40:25.495Z,81.32
2022-10-05T02:42:58.970Z,81.11
2022-10-05T02:45:38.028Z,81.33
2022-10-05T02:48:17.508Z,81.58
2022-10-05T02:51:03.126Z,81.66
2022-10-05T02:53:54.659Z,81.76
2022-10-05T02:56:33.839Z,81.75
2022-10-05T02:59:24.923Z,81.75
2022-10-05T03:02:16.464Z,81.73
2022-10-05T03:05:08.043Z,81.33
2022-10-05T03:07:56.487Z,81.62
2022-10-05T03:10:42.311Z,81.47
2022-10-05T03:13:24.726Z,81.21
2022-10-05T03:16:19.327Z,81.19
2022-10-05T03:19:13.869Z,81.15
2022-10-05T03:21:50.143Z,81.10
2022-10-05T03:24:32.175Z,81.19
2022-10-05T03:27:08.728Z,81.02
2022-10-05T03:29:57.043Z,80.96
2022-10-05T03:32:39.385Z,80.40
2022-10-05T03:35:32.447Z,80.46
2022-10-05T03:38:20.970Z,80.42
2022-10-05T03:41:03.193Z,80.41
2022-10-05T03:43:51.882Z,80.12
2022-10-05T03:46:49.977Z,80.18
2022-10-05T03:49:41.575Z,80.20
2022-10-05T03:52:22.521Z,80.36
2022-10-05T03:54:58.822Z,79.81
2022-10-05T03:57:31.999Z,79.82
2022-10-05T04:00:08.278Z,79.84
2022-10-05T04:02:41.848Z,79.74
2022-10-05T04:05:15.381Z,79.97
2022-10-05T04:07:54.783Z,79.70
2022-10-05T04:10:33.978Z,79.36
2022-10-05T04:13:07.542Z,79.42
2022-10-05T04:15:46.816Z,79.56
2022-10-05T04:18:26.285Z,79.68
2022-10-05T04:20:59.759Z,79.78
2022-10-05T04:23:36.028Z,79.58
2022-10-05T04:26:09.589Z,79.37
2022-10-05T04:29:00.971Z,79.57
2022-10-05T04:31:40.546Z,79.92
2022-10-05T04:34:16.714Z,80.21
2022-10-05T04:36:50.245Z,80.05
2022-10-05T04:39:26.723Z,79.96
2022-10-05T04:42:03.221Z,79.74
2022-10-05T04:44:47.944Z,80.01
2022-10-05T04:47:33.129Z,79.86
2022-10-05T04:50:14.844Z,79.80
2022-10-05T04:53:03.541Z,80.08
2022-10-05T04:55:36.920Z,80.17
2022-10-05T04:58:29.882Z,79.98
2022-10-05T05:01:15.609Z,80.04
2022-10-05T05:04:04.025Z,79.87
2022-10-05T05:06:52.643Z,80.36
2022-10-05T05:09:29.077Z,79.97
2022-10-05T05:12:08.314Z,80.20
2022-10-05T05:14:56.810Z,80.12
2022-10-05T05:17:49.910Z,80.45
2022-10-05T05:20:26.104Z,79.99
2022-10-05T05:23:20.783Z,79.83
2022-10-05T05:26:02.914Z,80.02
2022-10-05T05:28:39.342Z,80.22
2022-10-05T05:31:12.980Z,80.42
2022-10-05T05:33:58.479Z,80.04
2022-10-05T05:36:34.431Z,80.20
2022-10-05T05:39:22.498Z,80.00
2022-10-05T05:42:02.078Z,80.12
2022-10-05T05:44:39.098Z,79.84
2022-10-05T05:47:13.134Z,80.13
2022-10-05T05:50:11.525Z,79.86
2022-10-05T05:53:05.731Z,79.81
2022-10-05T05:55:39.782Z,80.01
2022-10-05T05:58:16.170Z,79.91
2022-10-05T06:00:55.193Z,79.89
2022-10-05T06:03:50.087Z,79.54
2022-10-05T06:06:23.470Z,79.55
2022-10-05T06:09:00.683Z,79.48
2022-10-05T06:11:34.255Z,79.11
2022-10-05T06:14:19.526Z,79.19
2022-10-05T06:16:56.012Z,79.26
2022-10-05T06:19:28.816Z,78.77
2022-10-05T06:22:08.565Z,78.99
2022-10-05T06:25:07.524Z,78.77
2022-10-05T06:27:39.650Z,78.78
2022-10-05T06:30:15.734Z,78.56
2022-10-05T06:33:06.063Z,78.41
2022-10-05T06:36:00.564Z,78.43
2022-10-05T06:39:04.150Z,78.40
2022-10-05T06:41:52.762Z,77.72
2022-10-05T06:44:29.088Z,77.84
2022-10-05T06:47:08.806Z,78.00
2022-10-05T06:49:44.938Z,78.02
2022-10-05T06:52:42.517Z,78.00
2022-10-05T06:55:18.815Z,77.57
2022-10-05T06:57:58.100Z,77.46
2022-10-05T07:00:49.709Z,77.23
2022-10-05T07:03:39.769Z,77.09
2022-10-05T07:06:13.144Z,77.52
2022-10-05T07:08:49.444Z,77.40
2022-10-05T07:11:31.510Z,77.52
2022-10-05T07:14:11.024Z,77.30
2022-10-05T07:17:19.645Z,77.15
2022-10-05T07:20:02.094Z,77.25
2022-10-05T07:22:53.643Z,77.38
2022-10-05T07:25:39.093Z,77.32
2022-10-05T07:28:15.334Z,76.63
2022-10-05T07:30:51.872Z,76.68
2022-10-05T07:33:28.089Z,75.98
2022-10-05T07:36:34.065Z,76.67
2022-10-05T07:39:20.184Z,75.77
2022-10-05T07:41:54.588Z,75.43
2022-10-05T07:44:33.846Z,74.90
2022-10-05T07:47:19.386Z,74.66
2022-10-05T07:50:02.365Z,74.90
2022-10-05T07:52:41.783Z,74.71
2022-10-05T07:55:24.498Z,74.28
2022-10-05T07:58:22.093Z,74.15
2022-10-05T08:01:20.278Z,73.89
2022-10-05T08:04:06.179Z,73.32
2022-10-05T08:06:45.622Z,73.09
2022-10-05T08:09:48.268Z,73.41
2022-10-05T08:12:21.813Z,73.07
2022-10-05T08:14:57.934Z,72.99
2022-10-05T08:17:43.501Z,72.69
2022-10-05T08:20:22.916Z,71.99
2022-10-05T08:23:01.939Z,71.74
2022-10-05T08:25:52.951Z,71.52
2022-10-05T08:28:29.159Z,70.98
2022-10-05T08:31:02.623Z,70.91
2022-10-05T08:33:38.531Z,71.10
2022-10-05T08:36:11.946Z,71.31
2022-10-05T08:38:43.402Z,71.33
2022-10-05T08:41:16.815Z,70.89
2022-10-05T08:44:09.714Z,70.78
2022-10-05T08:47:11.977Z,70.61
2022-10-05T08:50:15.988Z,70.40
2022-10-05T08:53:15.463Z,70.36
2022-10-05T08:55:54.758Z,70.25
2022-10-05T08:58:57.604Z,69.70
2022-10-05T09:01:46.341Z,69.46
2022-10-05T09:04:41.066Z,69.57
2022-10-05T09:07:23.642Z,69.38
2022-10-05T09:10:19.828Z,69.13
2022-10-05T09:13:13.275Z,69.07
2022-10-05T09:16:17.115Z,68.87
2022-10-05T09:19:24.206Z,69.15
2022-10-05T09:21:57.642Z,68.86
2022-10-05T09:24:31.221Z,68.70
2022-10-05T09:27:22.587Z,68.67
2022-10-05T09:30:01.647Z,69.01
2022-10-05T09:32:51.692Z,68.67
2022-10-05T09:35:57.058Z,68.41
2022-10-05T09:38:47.200Z,68.18
2022-10-05T09:41:55.848Z,68.28
2022-10-05T09:44:54.523Z,68.25
2022-10-05T09:47:46.180Z,67.85
2022-10-05T09:50:31.021Z,67.55
2022-10-05T09:53:21.153Z,66.85
2022-10-05T09:56:20.252Z,67.14
2022-10-05T09:59:13.297Z,66.80
2022-10-05T10:02:04.516Z,67.21
2022-10-05T10:04:53.269Z,66.96
2022-10-05T10:07:43.254Z,66.95
2022-10-05T10:10:41.726Z,66.77
2022-10-05T10:13:45.565Z,66.93
2022-10-05T10:16:37.032Z,66.68
2022-10-05T10:19:24.017Z,67.23
2022-10-05T10:22:06.786Z,67.22
2022-10-05T10:24:58.257Z,67.36
2022-10-05T10:27:52.351Z,67.47
2022-10-05T10:30:44.009Z,67.36
2022-10-05T10:33:42.132Z,67.00
2022-10-05T10:36:21.458Z,66.21
2022-10-05T10:39:09.252Z,66.38
2022-10-05T10:41:48.535Z,65.52
2022-10-05T10:44:38.545Z,65.31
2022-10-05T10:47:29.993Z,65.15
2022-10-05T10:50:29.361Z,64.92
2022-10-05T10:53:22.714Z,65.10
2022-10-05T10:56:17.286Z,64.30
2022-10-05T10:58:59.905Z,64.37
2022-10-05T11:01:55.297Z,64.40
2022-10-05T11:04:59.176Z,63.74
2022-10-05T11:08:05.885Z,63.90
2022-10-05T11:10:41.965Z,64.50
2022-10-05T11:13:34.786Z,63.95
2022-10-05T11:16:12.533Z,63.54
2022-10-05T11:19:21.712Z,63.41
2022-10-05T11:22:30.074Z,62.69
2022-10-05T11:25:21.755Z,62.77
2022-10-05T11:28:21.329Z,62.55
2022-10-05T11:31:06.805Z,60.77
2022-10-05T11:33:57.018Z,58.33
2022-10-05T11:36:48.654Z,57.41
2022-10-05T11:39:39.949Z,57.28
2022-10-05T11:42:33.194Z,58.99
2022-10-05T11:45:24.995Z,59.52
2022-10-05T11:48:25.785Z,57.18
2022-10-05T11:51:25.224Z,60.14
2022-10-05T11:54:13.437Z,60.83
2022-10-05T11:57:03.669Z,62.27
2022-10-05T11:59:40.047Z,62.80
2022-10-05T12:02:45.230Z,63.40
2022-10-05T12:05:24.558Z,62.93
2022-10-05T12:08:00.696Z,61.39
2022-10-05T12:10:49.087Z,59.83
2022-10-05T12:13:34.146Z,59.84
2022-10-05T12:16:22.772Z,59.86
2022-10-05T12:18:56.349Z,61.21
2022-10-05T12:21:41.884Z,61.30
2022-10-05T12:24:26.881Z,61.27
2022-10-05T12:27:17.902Z,61.13
2022-10-05T12:29:51.418Z,61.90
2022-10-05T12:32:36.744Z,62.04
2022-10-05T12:35:11.655Z,61.37
2022-10-05T12:37:48.221Z,61.40
2022-10-05T12:40:26.903Z,61.25
2022-10-05T12:43:04.648Z,61.94
2022-10-05T12:45:42.560Z,61.63
2022-10-05T12:48:31.299Z,61.92
2022-10-05T12:51:21.918Z,61.88
2022-10-05T12:54:13.435Z,60.90
2022-10-05T12:56:52.995Z,59.69
2022-10-05T12:59:28.919Z,59.12
2022-10-05T13:02:08.787Z,59.27
2022-10-05T13:04:42.462Z,59.58
2022-10-05T13:07:30.972Z,60.07
2022-10-05T13:10:13.090Z,60.63
2022-10-05T13:12:55.602Z,60.70
2022-10-05T13:15:37.990Z,60.54
2022-10-05T13:18:32.533Z,60.75
2022-10-05T13:21:09.151Z,60.46
2022-10-05T13:24:05.210Z,60.39
2022-10-05T13:26:39.032Z,59.44
2022-10-05T13:29:24.989Z,59.77
2022-10-05T13:32:02.223Z,59.52
2022-10-05T13:34:41.724Z,59.38
2022-10-05T13:37:33.314Z,59.09
2022-10-05T13:40:06.791Z,59.29
2022-10-05T13:42:40.365Z,59.74
2022-10-05T13:45:20.136Z,58.84
2022-10-05T13:48:14.845Z,58.19
2022-10-05T13:51:19.881Z,58.28
2022-10-05T13:54:09.991Z,58.11
2022-10-05T13:56:52.324Z,58.51
2022-10-05T13:59:39.651Z,58.78
2022-10-05T14:02:15.927Z,59.16
2022-10-05T14:04:52.052Z,59.33
2022-10-05T14:07:43.016Z,59.07
2022-10-05T14:10:18.426Z,59.35
2022-10-05T14:12:51.858Z,59.65
2022-10-05T14:15:25.649Z,59.00
2022-10-05T14:17:57.987Z,59.08
2022-10-05T14:20:34.636Z,59.12
2022-10-05T14:23:08.086Z,59.86
2022-10-05T14:25:51.994Z,59.87
2022-10-05T14:28:31.443Z,59.70
2022-10-05T14:31:19.128Z,59.83
2022-10-05T14:33:50.076Z,60.47
2022-10-05T14:36:43.962Z,60.58
2022-10-05T14:39:15.331Z,61.03
2022-10-05T14:41:51.349Z,61.29
2022-10-05T14:47:04.475Z,61.78
2022-10-05T14:49:36.898Z,62.14
2022-10-05T14:52:27.061Z,62.41
2022-10-05T14:55:01.190Z,62.63
2022-10-05T14:57:38.890Z,62.73
2022-10-05T15:00:17.552Z,63.16
2022-10-05T15:03:03.439Z,61.93
2022-10-05T15:05:55.235Z,61.44
2022-10-05T15:08:38.970Z,61.48
2022-10-05T15:11:36.948Z,61.74
2022-10-05T15:14:16.443Z,61.63
2022-10-05T15:16:49.416Z,61.71
2022-10-05T15:19:25.970Z,61.71
2022-10-05T15:22:02.549Z,61.87
2022-10-05T15:24:49.329Z,62.08
2022-10-05T15:27:43.950Z,62.45
2022-10-05T15:30:21.751Z,63.24
2022-10-05T15:33:15.612Z,63.39
2022-10-05T15:35:53.247Z,63.75
2022-10-05T15:38:30.034Z,63.64
2022-10-05T15:41:09.539Z,63.98
2022-10-05T15:43:44.716Z,63.50
2022-10-05T15:46:18.264Z,64.24
2022-10-05T15:49:09.791Z,64.24
2022-10-05T15:52:02.482Z,64.04
2022-10-05T15:54:44.609Z,64.37
2022-10-05T15:57:42.249Z,64.75
2022-10-05T16:00:15.333Z,64.36
2022-10-05T16:02:57.512Z,64.33
2022-10-05T16:06:06.054Z,64.44
2022-10-05T16:08:51.331Z,63.96
2022-10-05T16:11:47.416Z,63.87
2022-10-05T16:14:43.566Z,63.85
2022-10-05T16:17:20.286Z,64.14
2022-10-05T16:20:03.188Z,64.17
2022-10-05T16:22:52.141Z,64.40
2022-10-05T16:25:28.802Z,64.86
2022-10-05T16:28:05.903Z,65.14
2022-10-05T16:30:42.483Z,64.87
2022-10-05T16:33:39.814Z,65.15
2022-10-05T16:36:15.378Z,65.46
2022-10-05T16:38:52.062Z,65.70
2022-10-05T16:41:43.038Z,65.87
2022-10-05T16:44:25.387Z,66.25
2022-10-05T16:46:58.865Z,66.55
2022-10-05T16:49:38.230Z,66.65
2022-10-05T16:52:11.726Z,66.50
2022-10-05T16:54:47.885Z,66.80
2022-10-05T16:57:29.201Z,67.06
2022-10-05T17:00:19.221Z,67.47
2022-10-05T17:03:16.472Z,67.45
2022-10-05T17:06:01.895Z,68.11
2022-10-05T17:08:36.667Z,68.49
2022-10-05T17:11:29.785Z,68.38
2022-10-05T17:14:18.185Z,69.07
2022-10-05T17:17:19.059Z,69.54
2022-10-05T17:20:15.537Z,69.67
2022-10-05T17:22:55.048Z,70.28
2022-10-05T17:25:44.812Z,70.22
2022-10-05T17:28:21.485Z,70.34
2022-10-05T17:30:59.331Z,70.60
2022-10-05T17:33:31.884Z,71.30
2022-10-05T17:36:07.038Z,70.93
2022-10-05T17:38:43.323Z,71.71
2022-10-05T17:41:16.805Z,71.39
2022-10-05T17:44:17.453Z,71.43
2022-10-05T17:46:59.623Z,71.95
2022-10-05T17:50:18.946Z,72.05
2022-10-05T17:53:12.377Z,72.37
2022-10-05T17:55:47.080Z,72.23
2022-10-05T17:58:29.769Z,72.71
2022-10-05T18:01:04.181Z,72.51
2022-10-05T18:03:46.708Z,72.99
2022-10-05T18:06:32.149Z,73.48
2022-10-05T18:09:21.769Z,73.77
2022-10-05T18:12:20.472Z,73.79
2022-10-05T18:14:56.944Z,73.57
2022-10-05T18:17:46.877Z,73.57
2022-10-05T18:20:32.143Z,73.50
2022-10-05T18:23:09.608Z,73.99
2022-10-05T18:25:51.986Z,74.22
2022-10-05T18:28:34.312Z,74.09
2022-10-05T18:31:29.162Z,74.30
2022-10-05T18:34:18.056Z,74.24
2022-10-05T18:37:16.012Z,74.76
2022-10-05T18:40:25.914Z,74.37
2022-10-05T18:43:26.505Z,74.68
2022-10-05T18:46:11.615Z,74.59
2022-10-05T18:49:01.738Z,74.44
2022-10-05T18:51:51.562Z,74.79
2022-10-05T18:54:43.169Z,74.90
2022-10-05T18:57:37.548Z,74.97
2022-10-05T19:00:20.022Z,75.02
2022-10-05T19:03:05.822Z,74.75
2022-10-05T19:05:48.125Z,75.10
2022-10-05T19:08:21.946Z,75.24
2022-10-05T19:10:55.487Z,75.10
2022-10-05T19:13:50.913Z,74.77
2022-10-05T19:16:59.845Z,75.13
2022-10-05T19:19:43.811Z,74.82
2022-10-05T19:22:40.297Z,75.03
2022-10-05T19:25:33.287Z,75.25
2022-10-05T19:28:21.179Z,75.24
2022-10-05T19:31:14.375Z,75.18
2022-10-05T19:33:47.999Z,75.44
2022-10-05T19:36:48.851Z,75.85
2022-10-05T19:39:48.409Z,75.57
2022-10-05T19:42:30.650Z,76.06
2022-10-05T19:45:07.041Z,76.20
2022-10-05T19:48:10.866Z,76.48
2022-10-05T19:50:44.485Z,76.62
2022-10-05T19:53:17.416Z,76.20
2022-10-05T19:55:48.358Z,76.34
2022-10-05T19:58:27.288Z,76.64
2022-10-05T20:01:00.405Z,76.49
2022-10-05T20:03:33.573Z,76.41
2022-10-05T20:06:06.706Z,76.63
2022-10-05T20:08:45.829Z,76.55
2022-10-05T20:11:23.408Z,76.66
2022-10-05T20:13:56.874Z,76.20
2022-10-05T20:16:48.140Z,76.44
2022-10-05T20:19:38.383Z,76.42
2022-10-05T20:22:40.053Z,75.92
2022-10-05T20:25:22.178Z,76.29
2022-10-05T20:27:57.779Z,76.01
2022-10-05T20:30:31.601Z,75.82
2022-10-05T20:33:03.634Z,76.06
2022-10-05T20:35:34.035Z,76.26
2022-10-05T20:38:04.382Z,76.16
2022-10-05T20:40:35.058Z,76.11
2022-10-05T20:43:05.453Z,76.12
2022-10-05T20:45:36.220Z,76.20
2022-10-05T20:48:06.644Z,75.71
2022-10-05T20:50:38.741Z,76.17
2022-10-05T20:53:11.953Z,76.25
2022-10-05T20:55:41.276Z,76.42
2022-10-05T20:58:11.634Z,76.44
2022-10-05T21:00:59.940Z,76.02
2022-10-05T21:03:30.663Z,76.28
2022-10-05T21:06:01.016Z,76.30
2022-10-05T21:08:31.724Z,76.20
2022-10-05T21:11:02.148Z,76.38
2022-10-05T21:13:32.456Z,76.50
2022-10-05T21:16:05.070Z,76.52
2022-10-05T21:18:35.581Z,76.58
2022-10-05T21:21:06.126Z,76.86
2022-10-05T21:23:36.518Z,77.02
2022-10-05T21:26:07.965Z,77.03
2022-10-05T21:28:39.416Z,76.79
2022-10-05T21:31:10.878Z,76.91
2022-10-05T21:33:41.288Z,76.88
2022-10-05T21:36:11.905Z,76.86
2022-10-05T21:38:42.841Z,77.01
2022-10-05T21:41:13.248Z,76.62
2022-10-05T21:43:44.053Z,76.94
2022-10-05T21:46:19.097Z,77.21
2022-10-05T21:48:50.893Z,77.31
2022-10-05T21:51:23.251Z,77.11
2022-10-05T21:53:58.864Z,77.33
2022-10-05T21:56:35.464Z,77.40
2022-10-05T21:59:09.449Z,77.37
2022-10-05T22:01:39.836Z,77.21
2022-10-05T22:04:10.220Z,77.22
2022-10-05T22:06:40.738Z,77.39
2022-10-05T22:09:11.944Z,77.34
2022-10-05T22:11:42.273Z,77.62
2022-10-05T22:14:15.419Z,77.34
2022-10-05T22:16:45.878Z,77.20
2022-10-05T22:19:19.651Z,77.11
2022-10-05T22:21:50.037Z,77.08
2022-10-05T22:24:20.403Z,77.20
2022-10-05T22:26:52.776Z,77.37
2022-10-05T22:29:23.616Z,77.60
2022-10-05T22:31:58.298Z,77.38
2022-10-05T22:34:30.269Z,77.78
2022-10-05T22:37:01.948Z,77.65
2022-10-05T22:39:32.267Z,77.78
2022-10-05T22:42:02.774Z,77.56
2022-10-05T22:44:33.885Z,77.76
2022-10-05T22:47:04.856Z,77.83
2022-10-05T22:49:35.236Z,77.95
2022-10-05T22:52:05.585Z,77.66
2022-10-05T22:54:37.400Z,77.63
2022-10-05T22:57:08.017Z,77.62
2022-10-05T22:59:38.386Z,77.59
2022-10-05T23:02:08.765Z,77.77
2022-10-05T23:04:39.249Z,77.77
2022-10-05T23:07:09.584Z,78.03
2022-10-05T23:09:39.956Z,78.20
2022-10-05T23:12:12.039Z,78.35
2022-10-05T23:14:42.443Z,78.47
2022-10-05T23:17:12.775Z,78.56
2022-10-05T23:19:43.162Z,78.76
2022-10-05T23:22:13.567Z,79.08
2022-10-05T23:24:43.946Z,78.97
2022-10-05T23:27:14.416Z,78.89
2022-10-05T23:29:44.801Z,78.86
2022-10-05T23:32:15.135Z,78.95
2022-10-05T23:34:45.541Z,78.90
2022-10-05T23:37:17.685Z,79.05
2022-10-05T23:39:48.195Z,79.02
2022-10-05T23:42:18.904Z,78.98
2022-10-05T23:44:49.313Z,78.92
2022-10-05T23:47:19.689Z,79.05
2022-10-05T23:49:50.165Z,79.06
2022-10-05T23:52:20.589Z,78.74
2022-10-05T23:54:50.988Z,79.14
2022-10-05T23:57:21.476Z,79.14
2022-10-05T23:59:51.853Z,78.77
